sensor_id;sensor_type;location;lat;lon;timestamp;P1;durP1;ratioP1;P2;durP2;ratioP2
11481;SDS011;5797;51.662;6.748;2023-04-24T00:00:40;3.67;;;1.73;;
11481;SDS011;5797;51.662;6.748;2023-04-24T00:03:09;1.87;;;1.70;;
11481;SDS011;5797;51.662;6.748;2023-04-24T00:05:37;3.93;;;1.80;;
11481;SDS011;5797;51.662;6.748;2023-04-24T00:08:07;2.53;;;1.50;;
11481;SDS011;5797;51.662;6.748;2023-04-24T00:10:35;1.73;;;1.40;;
11481;SDS011;5797;51.662;6.748;2023-04-24T00:13:03;1.97;;;1.70;;
11481;SDS011;5797;51.662;6.748;2023-04-24T00:15:33;2.63;;;2.03;;
11481;SDS011;5797;51.662;6.748;2023-04-24T00:18:01;2.20;;;2.00;;
11481;SDS011;5797;51.662;6.748;2023-04-24T00:20:30;1.70;;;1.50;;
11481;SDS011;5797;51.662;6.748;2023-04-24T00:23:00;2.23;;;1.60;;
11481;SDS011;5797;51.662;6.748;2023-04-24T00:25:28;1.60;;;1.33;;
11481;SDS011;5797;51.662;6.748;2023-04-24T00:27:57;2.30;;;1.60;;
11481;SDS011;5797;51.662;6.748;2023-04-24T00:30:25;3.13;;;1.80;;
11481;SDS011;5797;51.662;6.748;2023-04-24T00:32:55;2.43;;;1.70;;
11481;SDS011;5797;51.662;6.748;2023-04-24T00:35:23;2.27;;;1.40;;
11481;SDS011;5797;51.662;6.748;2023-04-24T00:37:51;4.53;;;1.63;;
11481;SDS011;5797;51.662;6.748;2023-04-24T00:40:20;2.10;;;1.67;;
11481;SDS011;5797;51.662;6.748;2023-04-24T00:42:49;3.63;;;1.80;;
11481;SDS011;5797;51.662;6.748;2023-04-24T00:45:17;3.73;;;2.20;;
11481;SDS011;5797;51.662;6.748;2023-04-24T00:47:46;2.97;;;2.13;;
11481;SDS011;5797;51.662;6.748;2023-04-24T00:50:16;2.70;;;2.07;;
11481;SDS011;5797;51.662;6.748;2023-04-24T00:52:46;2.67;;;2.10;;
11481;SDS011;5797;51.662;6.748;2023-04-24T00:55:15;3.73;;;1.90;;
11481;SDS011;5797;51.662;6.748;2023-04-24T00:57:43;2.00;;;1.80;;
11481;SDS011;5797;51.662;6.748;2023-04-24T01:00:12;4.70;;;2.73;;
11481;SDS011;5797;51.662;6.748;2023-04-24T01:02:42;4.37;;;2.60;;
11481;SDS011;5797;51.662;6.748;2023-04-24T01:05:12;3.57;;;2.70;;
11481;SDS011;5797;51.662;6.748;2023-04-24T01:07:45;3.87;;;2.70;;
11481;SDS011;5797;51.662;6.748;2023-04-24T01:10:16;2.50;;;2.30;;
11481;SDS011;5797;51.662;6.748;2023-04-24T01:12:45;4.83;;;2.47;;
11481;SDS011;5797;51.662;6.748;2023-04-24T01:15:14;5.57;;;2.67;;
11481;SDS011;5797;51.662;6.748;2023-04-24T01:17:42;3.83;;;2.60;;
11481;SDS011;5797;51.662;6.748;2023-04-24T01:20:11;3.20;;;2.43;;
11481;SDS011;5797;51.662;6.748;2023-04-24T01:22:42;5.13;;;2.37;;
11481;SDS011;5797;51.662;6.748;2023-04-24T01:25:10;4.90;;;2.93;;
11481;SDS011;5797;51.662;6.748;2023-04-24T01:27:39;4.73;;;3.23;;
11481;SDS011;5797;51.662;6.748;2023-04-24T01:30:08;7.03;;;3.60;;
11481;SDS011;5797;51.662;6.748;2023-04-24T01:32:37;4.67;;;3.10;;
11481;SDS011;5797;51.662;6.748;2023-04-24T01:35:06;8.43;;;3.83;;
11481;SDS011;5797;51.662;6.748;2023-04-24T01:37:35;5.70;;;3.40;;
11481;SDS011;5797;51.662;6.748;2023-04-24T01:40:07;5.47;;;3.57;;
11481;SDS011;5797;51.662;6.748;2023-04-24T01:42:36;8.13;;;4.10;;
11481;SDS011;5797;51.662;6.748;2023-04-24T01:45:05;6.63;;;3.83;;
11481;SDS011;5797;51.662;6.748;2023-04-24T01:47:34;6.93;;;4.17;;
11481;SDS011;5797;51.662;6.748;2023-04-24T01:50:02;6.27;;;3.57;;
11481;SDS011;5797;51.662;6.748;2023-04-24T01:52:32;7.60;;;3.07;;
11481;SDS011;5797;51.662;6.748;2023-04-24T01:55:02;4.47;;;3.70;;
11481;SDS011;5797;51.662;6.748;2023-04-24T01:57:32;5.60;;;3.87;;
11481;SDS011;5797;51.662;6.748;2023-04-24T02:00:01;10.67;;;4.23;;
11481;SDS011;5797;51.662;6.748;2023-04-24T02:02:39;4.90;;;3.83;;
11481;SDS011;5797;51.662;6.748;2023-04-24T02:05:09;5.93;;;4.43;;
11481;SDS011;5797;51.662;6.748;2023-04-24T02:07:37;6.63;;;4.77;;
11481;SDS011;5797;51.662;6.748;2023-04-24T02:10:07;9.00;;;4.23;;
11481;SDS011;5797;51.662;6.748;2023-04-24T02:12:42;9.17;;;4.80;;
11481;SDS011;5797;51.662;6.748;2023-04-24T02:15:11;6.97;;;4.63;;
11481;SDS011;5797;51.662;6.748;2023-04-24T02:17:40;4.97;;;3.90;;
11481;SDS011;5797;51.662;6.748;2023-04-24T02:20:08;7.07;;;4.47;;
11481;SDS011;5797;51.662;6.748;2023-04-24T02:22:38;10.10;;;4.90;;
11481;SDS011;5797;51.662;6.748;2023-04-24T02:25:06;12.23;;;5.60;;
11481;SDS011;5797;51.662;6.748;2023-04-24T02:27:35;9.23;;;5.77;;
11481;SDS011;5797;51.662;6.748;2023-04-24T02:30:07;7.77;;;5.20;;
11481;SDS011;5797;51.662;6.748;2023-04-24T02:32:36;9.67;;;5.53;;
11481;SDS011;5797;51.662;6.748;2023-04-24T02:35:06;8.23;;;5.10;;
11481;SDS011;5797;51.662;6.748;2023-04-24T02:37:35;11.07;;;5.57;;
11481;SDS011;5797;51.662;6.748;2023-04-24T02:40:03;7.90;;;5.13;;
11481;SDS011;5797;51.662;6.748;2023-04-24T02:42:33;10.30;;;5.20;;
11481;SDS011;5797;51.662;6.748;2023-04-24T02:45:01;12.17;;;5.10;;
11481;SDS011;5797;51.662;6.748;2023-04-24T02:47:31;10.47;;;5.70;;
11481;SDS011;5797;51.662;6.748;2023-04-24T02:50:00;9.20;;;4.93;;
11481;SDS011;5797;51.662;6.748;2023-04-24T02:52:29;11.20;;;5.40;;
11481;SDS011;5797;51.662;6.748;2023-04-24T02:54:58;10.27;;;5.80;;
11481;SDS011;5797;51.662;6.748;2023-04-24T02:57:26;11.00;;;6.67;;
11481;SDS011;5797;51.662;6.748;2023-04-24T02:59:54;14.20;;;6.00;;
11481;SDS011;5797;51.662;6.748;2023-04-24T03:02:23;13.00;;;7.23;;
11481;SDS011;5797;51.662;6.748;2023-04-24T03:04:53;10.33;;;6.27;;
11481;SDS011;5797;51.662;6.748;2023-04-24T03:07:22;10.03;;;6.13;;
11481;SDS011;5797;51.662;6.748;2023-04-24T03:09:50;11.23;;;6.70;;
11481;SDS011;5797;51.662;6.748;2023-04-24T03:12:19;12.00;;;6.97;;
11481;SDS011;5797;51.662;6.748;2023-04-24T03:14:47;12.70;;;7.47;;
11481;SDS011;5797;51.662;6.748;2023-04-24T03:17:16;15.83;;;7.90;;
11481;SDS011;5797;51.662;6.748;2023-04-24T03:19:44;12.23;;;7.37;;
11481;SDS011;5797;51.662;6.748;2023-04-24T03:22:14;10.70;;;6.67;;
11481;SDS011;5797;51.662;6.748;2023-04-24T03:24:42;13.60;;;6.97;;
11481;SDS011;5797;51.662;6.748;2023-04-24T03:27:14;10.03;;;7.70;;
11481;SDS011;5797;51.662;6.748;2023-04-24T03:29:50;13.30;;;7.70;;
11481;SDS011;5797;51.662;6.748;2023-04-24T03:32:26;19.70;;;6.83;;
11481;SDS011;5797;51.662;6.748;2023-04-24T03:34:54;12.70;;;7.30;;
11481;SDS011;5797;51.662;6.748;2023-04-24T03:37:24;11.63;;;7.07;;
11481;SDS011;5797;51.662;6.748;2023-04-24T03:40:05;14.37;;;6.97;;
11481;SDS011;5797;51.662;6.748;2023-04-24T03:42:35;12.80;;;7.03;;
11481;SDS011;5797;51.662;6.748;2023-04-24T03:45:06;16.63;;;8.07;;
11481;SDS011;5797;51.662;6.748;2023-04-24T03:47:38;15.87;;;7.77;;
11481;SDS011;5797;51.662;6.748;2023-04-24T03:50:06;13.07;;;8.33;;
11481;SDS011;5797;51.662;6.748;2023-04-24T03:52:38;15.20;;;7.70;;
11481;SDS011;5797;51.662;6.748;2023-04-24T03:55:06;13.27;;;8.07;;
11481;SDS011;5797;51.662;6.748;2023-04-24T03:57:42;21.07;;;8.47;;
11481;SDS011;5797;51.662;6.748;2023-04-24T04:00:19;10.57;;;6.77;;
11481;SDS011;5797;51.662;6.748;2023-04-24T04:02:55;15.03;;;8.00;;
11481;SDS011;5797;51.662;6.748;2023-04-24T04:05:24;12.90;;;6.70;;
11481;SDS011;5797;51.662;6.748;2023-04-24T04:07:54;14.33;;;8.40;;
11481;SDS011;5797;51.662;6.748;2023-04-24T04:10:22;13.17;;;7.73;;
11481;SDS011;5797;51.662;6.748;2023-04-24T04:12:51;10.90;;;7.57;;
11481;SDS011;5797;51.662;6.748;2023-04-24T04:15:19;20.50;;;8.10;;
11481;SDS011;5797;51.662;6.748;2023-04-24T04:17:49;11.70;;;7.47;;
11481;SDS011;5797;51.662;6.748;2023-04-24T04:20:18;13.13;;;6.90;;
11481;SDS011;5797;51.662;6.748;2023-04-24T04:22:47;19.87;;;8.40;;
11481;SDS011;5797;51.662;6.748;2023-04-24T04:25:24;11.77;;;7.97;;
11481;SDS011;5797;51.662;6.748;2023-04-24T04:27:53;16.60;;;6.80;;
11481;SDS011;5797;51.662;6.748;2023-04-24T04:30:22;11.67;;;6.10;;
11481;SDS011;5797;51.662;6.748;2023-04-24T04:32:58;15.23;;;8.47;;
11481;SDS011;5797;51.662;6.748;2023-04-24T04:35:27;14.47;;;6.73;;
11481;SDS011;5797;51.662;6.748;2023-04-24T04:37:56;11.53;;;7.00;;
11481;SDS011;5797;51.662;6.748;2023-04-24T04:40:40;11.03;;;6.93;;
11481;SDS011;5797;51.662;6.748;2023-04-24T04:43:11;11.93;;;7.47;;
11481;SDS011;5797;51.662;6.748;2023-04-24T04:45:45;12.37;;;7.67;;
11481;SDS011;5797;51.662;6.748;2023-04-24T04:48:42;13.23;;;7.23;;
11481;SDS011;5797;51.662;6.748;2023-04-24T04:51:11;15.03;;;8.10;;
11481;SDS011;5797;51.662;6.748;2023-04-24T04:53:40;17.27;;;6.60;;
11481;SDS011;5797;51.662;6.748;2023-04-24T04:56:09;10.47;;;7.27;;
11481;SDS011;5797;51.662;6.748;2023-04-24T04:58:43;14.90;;;7.93;;
11481;SDS011;5797;51.662;6.748;2023-04-24T05:01:15;12.37;;;6.70;;
11481;SDS011;5797;51.662;6.748;2023-04-24T05:03:46;12.30;;;6.47;;
11481;SDS011;5797;51.662;6.748;2023-04-24T05:06:16;12.97;;;7.37;;
11481;SDS011;5797;51.662;6.748;2023-04-24T05:08:46;13.77;;;7.00;;
11481;SDS011;5797;51.662;6.748;2023-04-24T05:11:30;13.60;;;7.73;;
11481;SDS011;5797;51.662;6.748;2023-04-24T05:14:01;11.23;;;5.87;;
11481;SDS011;5797;51.662;6.748;2023-04-24T05:16:36;9.20;;;4.73;;
11481;SDS011;5797;51.662;6.748;2023-04-24T05:19:06;15.47;;;7.37;;
11481;SDS011;5797;51.662;6.748;2023-04-24T05:21:38;9.20;;;6.37;;
11481;SDS011;5797;51.662;6.748;2023-04-24T05:24:08;11.70;;;6.33;;
11481;SDS011;5797;51.662;6.748;2023-04-24T05:27:03;11.80;;;6.63;;
11481;SDS011;5797;51.662;6.748;2023-04-24T05:29:37;10.67;;;6.13;;
11481;SDS011;5797;51.662;6.748;2023-04-24T05:32:05;8.30;;;5.10;;
11481;SDS011;5797;51.662;6.748;2023-04-24T05:34:34;7.10;;;4.63;;
11481;SDS011;5797;51.662;6.748;2023-04-24T05:37:03;10.73;;;6.10;;
11481;SDS011;5797;51.662;6.748;2023-04-24T05:39:35;11.70;;;5.63;;
11481;SDS011;5797;51.662;6.748;2023-04-24T05:42:05;9.30;;;4.80;;
11481;SDS011;5797;51.662;6.748;2023-04-24T05:44:33;8.30;;;5.20;;
11481;SDS011;5797;51.662;6.748;2023-04-24T05:47:02;7.93;;;5.53;;
11481;SDS011;5797;51.662;6.748;2023-04-24T05:49:30;8.27;;;5.07;;
11481;SDS011;5797;51.662;6.748;2023-04-24T05:51:59;10.83;;;5.67;;
11481;SDS011;5797;51.662;6.748;2023-04-24T05:54:27;9.03;;;5.43;;
11481;SDS011;5797;51.662;6.748;2023-04-24T05:56:56;8.73;;;4.73;;
11481;SDS011;5797;51.662;6.748;2023-04-24T05:59:36;10.07;;;6.73;;
11481;SDS011;5797;51.662;6.748;2023-04-24T06:02:06;9.57;;;6.30;;
11481;SDS011;5797;51.662;6.748;2023-04-24T06:04:34;10.37;;;5.87;;
11481;SDS011;5797;51.662;6.748;2023-04-24T06:07:03;8.00;;;5.23;;
11481;SDS011;5797;51.662;6.748;2023-04-24T06:09:32;9.17;;;5.50;;
11481;SDS011;5797;51.662;6.748;2023-04-24T06:12:00;12.00;;;5.87;;
11481;SDS011;5797;51.662;6.748;2023-04-24T06:14:45;10.90;;;5.80;;
11481;SDS011;5797;51.662;6.748;2023-04-24T06:17:18;9.07;;;5.33;;
11481;SDS011;5797;51.662;6.748;2023-04-24T06:19:47;9.77;;;5.60;;
11481;SDS011;5797;51.662;6.748;2023-04-24T06:22:15;7.00;;;5.03;;
11481;SDS011;5797;51.662;6.748;2023-04-24T06:24:44;11.00;;;5.40;;
11481;SDS011;5797;51.662;6.748;2023-04-24T06:27:12;8.80;;;4.80;;
11481;SDS011;5797;51.662;6.748;2023-04-24T06:29:41;8.33;;;5.13;;
11481;SDS011;5797;51.662;6.748;2023-04-24T06:32:11;8.43;;;5.37;;
11481;SDS011;5797;51.662;6.748;2023-04-24T06:34:40;8.33;;;5.37;;
11481;SDS011;5797;51.662;6.748;2023-04-24T06:37:09;11.17;;;5.07;;
11481;SDS011;5797;51.662;6.748;2023-04-24T06:39:37;8.90;;;5.60;;
11481;SDS011;5797;51.662;6.748;2023-04-24T06:42:05;6.57;;;4.73;;
11481;SDS011;5797;51.662;6.748;2023-04-24T06:44:34;6.50;;;4.43;;
11481;SDS011;5797;51.662;6.748;2023-04-24T06:47:08;7.73;;;4.97;;
11481;SDS011;5797;51.662;6.748;2023-04-24T06:49:38;10.63;;;4.67;;
11481;SDS011;5797;51.662;6.748;2023-04-24T06:52:06;7.30;;;4.67;;
11481;SDS011;5797;51.662;6.748;2023-04-24T06:54:35;9.47;;;5.60;;
11481;SDS011;5797;51.662;6.748;2023-04-24T06:57:03;6.50;;;4.43;;
11481;SDS011;5797;51.662;6.748;2023-04-24T06:59:32;8.67;;;4.80;;
11481;SDS011;5797;51.662;6.748;2023-04-24T07:02:00;7.00;;;4.30;;
11481;SDS011;5797;51.662;6.748;2023-04-24T07:04:28;5.70;;;4.33;;
11481;SDS011;5797;51.662;6.748;2023-04-24T07:06:59;7.13;;;4.23;;
11481;SDS011;5797;51.662;6.748;2023-04-24T07:09:27;7.00;;;4.63;;
11481;SDS011;5797;51.662;6.748;2023-04-24T07:11:56;5.47;;;4.03;;
11481;SDS011;5797;51.662;6.748;2023-04-24T07:14:24;6.37;;;4.37;;
11481;SDS011;5797;51.662;6.748;2023-04-24T07:16:52;5.73;;;4.20;;
11481;SDS011;5797;51.662;6.748;2023-04-24T07:19:21;8.30;;;4.43;;
11481;SDS011;5797;51.662;6.748;2023-04-24T07:21:49;4.30;;;3.37;;
11481;SDS011;5797;51.662;6.748;2023-04-24T07:24:18;8.87;;;3.70;;
11481;SDS011;5797;51.662;6.748;2023-04-24T07:26:48;6.10;;;3.23;;
11481;SDS011;5797;51.662;6.748;2023-04-24T07:29:18;4.53;;;3.20;;
11481;SDS011;5797;51.662;6.748;2023-04-24T07:31:47;6.00;;;3.63;;
11481;SDS011;5797;51.662;6.748;2023-04-24T07:34:16;4.03;;;2.40;;
11481;SDS011;5797;51.662;6.748;2023-04-24T07:36:44;4.07;;;2.97;;
11481;SDS011;5797;51.662;6.748;2023-04-24T07:39:12;4.37;;;2.40;;
11481;SDS011;5797;51.662;6.748;2023-04-24T07:41:42;5.30;;;2.50;;
11481;SDS011;5797;51.662;6.748;2023-04-24T07:44:10;2.80;;;2.20;;
11481;SDS011;5797;51.662;6.748;2023-04-24T07:46:38;3.70;;;1.90;;
11481;SDS011;5797;51.662;6.748;2023-04-24T07:49:07;4.20;;;2.10;;
11481;SDS011;5797;51.662;6.748;2023-04-24T07:51:39;2.60;;;1.93;;
11481;SDS011;5797;51.662;6.748;2023-04-24T07:54:08;4.47;;;2.23;;
11481;SDS011;5797;51.662;6.748;2023-04-24T07:56:36;2.70;;;1.87;;
11481;SDS011;5797;51.662;6.748;2023-04-24T07:59:07;1.83;;;1.63;;
11481;SDS011;5797;51.662;6.748;2023-04-24T08:01:36;4.83;;;2.20;;
11481;SDS011;5797;51.662;6.748;2023-04-24T08:04:04;2.60;;;1.80;;
11481;SDS011;5797;51.662;6.748;2023-04-24T08:06:33;2.90;;;1.70;;
11481;SDS011;5797;51.662;6.748;2023-04-24T08:09:02;3.10;;;1.67;;
11481;SDS011;5797;51.662;6.748;2023-04-24T08:11:31;2.23;;;1.70;;
11481;SDS011;5797;51.662;6.748;2023-04-24T08:13:59;2.90;;;1.80;;
11481;SDS011;5797;51.662;6.748;2023-04-24T08:16:29;3.60;;;2.00;;
11481;SDS011;5797;51.662;6.748;2023-04-24T08:18:57;3.97;;;1.70;;
11481;SDS011;5797;51.662;6.748;2023-04-24T08:21:26;3.37;;;1.60;;
11481;SDS011;5797;51.662;6.748;2023-04-24T08:23:54;2.33;;;1.83;;
11481;SDS011;5797;51.662;6.748;2023-04-24T08:26:23;3.60;;;1.87;;
11481;SDS011;5797;51.662;6.748;2023-04-24T08:28:51;2.53;;;1.97;;
11481;SDS011;5797;51.662;6.748;2023-04-24T08:31:19;2.07;;;1.77;;
11481;SDS011;5797;51.662;6.748;2023-04-24T08:33:50;1.87;;;1.43;;
11481;SDS011;5797;51.662;6.748;2023-04-24T08:36:19;1.93;;;1.47;;
11481;SDS011;5797;51.662;6.748;2023-04-24T08:38:47;5.53;;;2.00;;
11481;SDS011;5797;51.662;6.748;2023-04-24T08:41:16;2.13;;;1.70;;
11481;SDS011;5797;51.662;6.748;2023-04-24T08:43:46;2.63;;;1.90;;
11481;SDS011;5797;51.662;6.748;2023-04-24T08:46:14;2.60;;;1.87;;
11481;SDS011;5797;51.662;6.748;2023-04-24T08:48:44;3.47;;;1.77;;
11481;SDS011;5797;51.662;6.748;2023-04-24T08:51:15;3.23;;;2.00;;
11481;SDS011;5797;51.662;6.748;2023-04-24T08:53:45;2.97;;;1.63;;
11481;SDS011;5797;51.662;6.748;2023-04-24T08:56:13;2.77;;;2.00;;
11481;SDS011;5797;51.662;6.748;2023-04-24T08:58:42;4.90;;;1.77;;
11481;SDS011;5797;51.662;6.748;2023-04-24T09:01:11;1.60;;;1.50;;
11481;SDS011;5797;51.662;6.748;2023-04-24T09:03:40;2.30;;;1.67;;
11481;SDS011;5797;51.662;6.748;2023-04-24T09:06:09;1.20;;;0.97;;
11481;SDS011;5797;51.662;6.748;2023-04-24T09:08:40;1.40;;;1.17;;
11481;SDS011;5797;51.662;6.748;2023-04-24T09:11:09;1.20;;;1.10;;
11481;SDS011;5797;51.662;6.748;2023-04-24T09:13:37;1.50;;;1.40;;
11481;SDS011;5797;51.662;6.748;2023-04-24T09:16:06;1.83;;;1.57;;
11481;SDS011;5797;51.662;6.748;2023-04-24T09:18:35;3.87;;;2.50;;
11481;SDS011;5797;51.662;6.748;2023-04-24T09:21:04;3.43;;;2.63;;
11481;SDS011;5797;51.662;6.748;2023-04-24T09:23:35;4.27;;;3.40;;
11481;SDS011;5797;51.662;6.748;2023-04-24T09:26:05;5.70;;;3.87;;
11481;SDS011;5797;51.662;6.748;2023-04-24T09:28:34;6.43;;;3.87;;
11481;SDS011;5797;51.662;6.748;2023-04-24T09:31:05;5.13;;;3.83;;
11481;SDS011;5797;51.662;6.748;2023-04-24T09:33:35;6.07;;;4.00;;
11481;SDS011;5797;51.662;6.748;2023-04-24T09:36:03;6.73;;;3.57;;
11481;SDS011;5797;51.662;6.748;2023-04-24T09:38:33;9.63;;;3.87;;
11481;SDS011;5797;51.662;6.748;2023-04-24T09:41:02;6.53;;;4.33;;
11481;SDS011;5797;51.662;6.748;2023-04-24T09:43:33;7.73;;;3.73;;
11481;SDS011;5797;51.662;6.748;2023-04-24T09:46:04;10.73;;;4.37;;
11481;SDS011;5797;51.662;6.748;2023-04-24T09:48:33;5.60;;;4.00;;
11481;SDS011;5797;51.662;6.748;2023-04-24T09:51:03;7.67;;;4.80;;
11481;SDS011;5797;51.662;6.748;2023-04-24T09:53:33;16.67;;;7.27;;
11481;SDS011;5797;51.662;6.748;2023-04-24T09:56:08;7.00;;;4.27;;
11481;SDS011;5797;51.662;6.748;2023-04-24T09:58:39;6.77;;;3.93;;
11481;SDS011;5797;51.662;6.748;2023-04-24T10:01:07;10.90;;;4.90;;
11481;SDS011;5797;51.662;6.748;2023-04-24T10:03:36;6.70;;;4.80;;
11481;SDS011;5797;51.662;6.748;2023-04-24T10:06:04;8.37;;;4.80;;
11481;SDS011;5797;51.662;6.748;2023-04-24T10:08:36;7.33;;;4.97;;
11481;SDS011;5797;51.662;6.748;2023-04-24T10:11:04;9.47;;;5.00;;
11481;SDS011;5797;51.662;6.748;2023-04-24T10:13:35;6.67;;;4.10;;
11481;SDS011;5797;51.662;6.748;2023-04-24T10:16:04;5.73;;;4.07;;
11481;SDS011;5797;51.662;6.748;2023-04-24T10:18:32;14.13;;;3.53;;
11481;SDS011;5797;51.662;6.748;2023-04-24T10:21:01;6.97;;;4.43;;
11481;SDS011;5797;51.662;6.748;2023-04-24T10:23:30;9.20;;;3.90;;
11481;SDS011;5797;51.662;6.748;2023-04-24T10:25:59;6.80;;;3.93;;
11481;SDS011;5797;51.662;6.748;2023-04-24T10:28:28;14.27;;;3.43;;
11481;SDS011;5797;51.662;6.748;2023-04-24T10:30:59;7.23;;;3.67;;
11481;SDS011;5797;51.662;6.748;2023-04-24T10:33:28;10.13;;;3.60;;
11481;SDS011;5797;51.662;6.748;2023-04-24T10:35:57;8.63;;;3.47;;
11481;SDS011;5797;51.662;6.748;2023-04-24T10:38:26;9.37;;;3.50;;
11481;SDS011;5797;51.662;6.748;2023-04-24T10:40:57;6.50;;;3.20;;
11481;SDS011;5797;51.662;6.748;2023-04-24T10:43:25;9.80;;;3.30;;
11481;SDS011;5797;51.662;6.748;2023-04-24T10:46:02;10.20;;;3.80;;
11481;SDS011;5797;51.662;6.748;2023-04-24T10:48:31;7.90;;;3.07;;
11481;SDS011;5797;51.662;6.748;2023-04-24T10:51:00;12.23;;;3.90;;
11481;SDS011;5797;51.662;6.748;2023-04-24T10:53:29;9.47;;;3.17;;
11481;SDS011;5797;51.662;6.748;2023-04-24T10:55:58;7.53;;;3.03;;
11481;SDS011;5797;51.662;6.748;2023-04-24T10:58:35;6.40;;;3.33;;
11481;SDS011;5797;51.662;6.748;2023-04-24T11:01:06;10.00;;;3.97;;
11481;SDS011;5797;51.662;6.748;2023-04-24T11:03:35;7.77;;;3.77;;
11481;SDS011;5797;51.662;6.748;2023-04-24T11:06:05;9.47;;;3.50;;
11481;SDS011;5797;51.662;6.748;2023-04-24T11:08:37;8.13;;;2.93;;
11481;SDS011;5797;51.662;6.748;2023-04-24T11:11:09;12.53;;;3.30;;
11481;SDS011;5797;51.662;6.748;2023-04-24T11:16:32;8.80;;;3.30;;
11481;SDS011;5797;51.662;6.748;2023-04-24T11:19:03;11.20;;;3.50;;
11481;SDS011;5797;51.662;6.748;2023-04-24T11:21:38;7.13;;;2.83;;
11481;SDS011;5797;51.662;6.748;2023-04-24T11:24:24;6.53;;;2.53;;
11481;SDS011;5797;51.662;6.748;2023-04-24T11:26:54;10.27;;;2.80;;
11481;SDS011;5797;51.662;6.748;2023-04-24T11:29:37;7.73;;;3.10;;
11481;SDS011;5797;51.662;6.748;2023-04-24T11:32:23;7.73;;;2.90;;
11481;SDS011;5797;51.662;6.748;2023-04-24T11:34:53;4.03;;;2.43;;
11481;SDS011;5797;51.662;6.748;2023-04-24T11:37:22;11.80;;;2.40;;
11481;SDS011;5797;51.662;6.748;2023-04-24T11:39:52;7.43;;;2.17;;
11481;SDS011;5797;51.662;6.748;2023-04-24T11:42:21;16.43;;;2.47;;
11481;SDS011;5797;51.662;6.748;2023-04-24T11:44:51;4.53;;;2.37;;
11481;SDS011;5797;51.662;6.748;2023-04-24T11:47:21;5.60;;;2.33;;
11481;SDS011;5797;51.662;6.748;2023-04-24T11:49:55;3.23;;;1.90;;
11481;SDS011;5797;51.662;6.748;2023-04-24T11:52:24;3.40;;;1.77;;
11481;SDS011;5797;51.662;6.748;2023-04-24T11:54:52;4.10;;;1.87;;
11481;SDS011;5797;51.662;6.748;2023-04-24T11:57:21;4.13;;;1.90;;
11481;SDS011;5797;51.662;6.748;2023-04-24T11:59:53;4.73;;;2.60;;
11481;SDS011;5797;51.662;6.748;2023-04-24T12:02:23;4.57;;;2.37;;
11481;SDS011;5797;51.662;6.748;2023-04-24T12:04:52;6.03;;;1.97;;
11481;SDS011;5797;51.662;6.748;2023-04-24T12:07:22;5.13;;;2.37;;
11481;SDS011;5797;51.662;6.748;2023-04-24T12:09:55;6.17;;;1.90;;
11481;SDS011;5797;51.662;6.748;2023-04-24T12:12:25;4.30;;;1.30;;
11481;SDS011;5797;51.662;6.748;2023-04-24T12:14:55;2.43;;;1.37;;
11481;SDS011;5797;51.662;6.748;2023-04-24T12:17:27;3.67;;;1.80;;
11481;SDS011;5797;51.662;6.748;2023-04-24T12:19:59;3.60;;;2.17;;
11481;SDS011;5797;51.662;6.748;2023-04-24T12:22:42;4.23;;;1.60;;
11481;SDS011;5797;51.662;6.748;2023-04-24T12:25:12;2.03;;;1.30;;
11481;SDS011;5797;51.662;6.748;2023-04-24T12:27:41;3.40;;;1.30;;
11481;SDS011;5797;51.662;6.748;2023-04-24T12:30:10;6.30;;;1.80;;
11481;SDS011;5797;51.662;6.748;2023-04-24T12:32:43;5.07;;;1.90;;
11481;SDS011;5797;51.662;6.748;2023-04-24T12:35:13;2.43;;;1.73;;
11481;SDS011;5797;51.662;6.748;2023-04-24T12:37:42;6.73;;;1.77;;
11481;SDS011;5797;51.662;6.748;2023-04-24T12:40:13;1.60;;;1.50;;
11481;SDS011;5797;51.662;6.748;2023-04-24T12:42:43;3.00;;;1.60;;
11481;SDS011;5797;51.662;6.748;2023-04-24T12:45:12;1.80;;;1.40;;
11481;SDS011;5797;51.662;6.748;2023-04-24T12:47:43;2.77;;;1.43;;
11481;SDS011;5797;51.662;6.748;2023-04-24T12:50:12;3.13;;;1.70;;
11481;SDS011;5797;51.662;6.748;2023-04-24T12:52:41;4.97;;;2.33;;
11481;SDS011;5797;51.662;6.748;2023-04-24T12:55:10;5.17;;;1.77;;
11481;SDS011;5797;51.662;6.748;2023-04-24T12:57:39;5.77;;;2.07;;
11481;SDS011;5797;51.662;6.748;2023-04-24T13:00:08;1.73;;;1.50;;
11481;SDS011;5797;51.662;6.748;2023-04-24T13:02:37;5.27;;;1.80;;
11481;SDS011;5797;51.662;6.748;2023-04-24T13:05:07;4.50;;;1.90;;
11481;SDS011;5797;51.662;6.748;2023-04-24T13:07:38;3.67;;;1.60;;
11481;SDS011;5797;51.662;6.748;2023-04-24T13:10:06;2.53;;;1.53;;
11481;SDS011;5797;51.662;6.748;2023-04-24T13:12:36;4.73;;;1.43;;
11481;SDS011;5797;51.662;6.748;2023-04-24T13:15:06;3.53;;;1.77;;
11481;SDS011;5797;51.662;6.748;2023-04-24T13:17:34;2.23;;;1.70;;
11481;SDS011;5797;51.662;6.748;2023-04-24T13:20:08;3.90;;;1.70;;
11481;SDS011;5797;51.662;6.748;2023-04-24T13:22:36;3.27;;;1.87;;
11481;SDS011;5797;51.662;6.748;2023-04-24T13:25:05;11.03;;;1.90;;
11481;SDS011;5797;51.662;6.748;2023-04-24T13:27:34;1.77;;;1.67;;
11481;SDS011;5797;51.662;6.748;2023-04-24T13:30:03;3.30;;;1.77;;
11481;SDS011;5797;51.662;6.748;2023-04-24T13:32:32;2.33;;;1.60;;
11481;SDS011;5797;51.662;6.748;2023-04-24T13:35:02;7.77;;;2.23;;
11481;SDS011;5797;51.662;6.748;2023-04-24T13:37:32;3.70;;;2.57;;
11481;SDS011;5797;51.662;6.748;2023-04-24T13:40:00;4.23;;;1.70;;
11481;SDS011;5797;51.662;6.748;2023-04-24T13:42:29;5.47;;;1.70;;
11481;SDS011;5797;51.662;6.748;2023-04-24T13:44:57;3.70;;;1.97;;
11481;SDS011;5797;51.662;6.748;2023-04-24T13:47:26;6.43;;;2.07;;
11481;SDS011;5797;51.662;6.748;2023-04-24T13:49:55;3.97;;;2.00;;
11481;SDS011;5797;51.662;6.748;2023-04-24T13:52:23;3.73;;;1.97;;
11481;SDS011;5797;51.662;6.748;2023-04-24T13:54:53;2.00;;;1.77;;
11481;SDS011;5797;51.662;6.748;2023-04-24T13:57:22;5.53;;;2.00;;
11481;SDS011;5797;51.662;6.748;2023-04-24T13:59:51;3.03;;;1.70;;
11481;SDS011;5797;51.662;6.748;2023-04-24T14:02:19;5.97;;;1.90;;
11481;SDS011;5797;51.662;6.748;2023-04-24T14:04:47;3.60;;;2.17;;
11481;SDS011;5797;51.662;6.748;2023-04-24T14:07:16;2.77;;;1.70;;
11481;SDS011;5797;51.662;6.748;2023-04-24T14:09:44;3.50;;;2.23;;
11481;SDS011;5797;51.662;6.748;2023-04-24T14:12:14;5.57;;;2.67;;
11481;SDS011;5797;51.662;6.748;2023-04-24T14:14:45;3.73;;;1.90;;
11481;SDS011;5797;51.662;6.748;2023-04-24T14:17:14;4.83;;;2.27;;
11481;SDS011;5797;51.662;6.748;2023-04-24T14:19:43;4.17;;;2.23;;
11481;SDS011;5797;51.662;6.748;2023-04-24T14:22:11;5.30;;;2.47;;
11481;SDS011;5797;51.662;6.748;2023-04-24T14:24:40;5.27;;;2.60;;
11481;SDS011;5797;51.662;6.748;2023-04-24T14:27:08;5.27;;;2.43;;
11481;SDS011;5797;51.662;6.748;2023-04-24T14:29:38;3.40;;;2.10;;
11481;SDS011;5797;51.662;6.748;2023-04-24T14:32:07;5.43;;;2.73;;
11481;SDS011;5797;51.662;6.748;2023-04-24T14:34:36;4.10;;;2.30;;
11481;SDS011;5797;51.662;6.748;2023-04-24T14:37:04;5.10;;;2.10;;
11481;SDS011;5797;51.662;6.748;2023-04-24T14:39:33;3.17;;;2.43;;
11481;SDS011;5797;51.662;6.748;2023-04-24T14:42:01;5.67;;;2.20;;
11481;SDS011;5797;51.662;6.748;2023-04-24T14:44:30;4.23;;;1.97;;
11481;SDS011;5797;51.662;6.748;2023-04-24T14:47:00;10.70;;;2.47;;
11481;SDS011;5797;51.662;6.748;2023-04-24T14:49:28;4.10;;;2.43;;
11481;SDS011;5797;51.662;6.748;2023-04-24T14:51:57;3.90;;;2.10;;
11481;SDS011;5797;51.662;6.748;2023-04-24T14:54:25;2.13;;;1.80;;
11481;SDS011;5797;51.662;6.748;2023-04-24T14:56:54;3.57;;;1.47;;
11481;SDS011;5797;51.662;6.748;2023-04-24T14:59:23;2.20;;;1.57;;
11481;SDS011;5797;51.662;6.748;2023-04-24T15:01:52;3.40;;;1.97;;
11481;SDS011;5797;51.662;6.748;2023-04-24T15:04:42;1.87;;;1.40;;
11481;SDS011;5797;51.662;6.748;2023-04-24T15:07:10;1.63;;;1.33;;
11481;SDS011;5797;51.662;6.748;2023-04-24T15:09:39;3.60;;;1.40;;
11481;SDS011;5797;51.662;6.748;2023-04-24T15:12:07;6.03;;;1.87;;
11481;SDS011;5797;51.662;6.748;2023-04-24T15:14:36;4.57;;;2.07;;
11481;SDS011;5797;51.662;6.748;2023-04-24T15:17:05;2.77;;;1.40;;